Roanoke Rapids, North Carolina
Current Conditions -  °F | °C
As of 2:35 AM on Wednesday 26 Nov 2014 (Local Time) from KIXA Reporting Station
Moderate Rain Moderate Rain  
Wind Chill: 44°   Ceiling: 400
Heat Index: 48°   Visibility: 5mi
Dew Point: 48°   Wind: 10mph
Humidity: 100%   Direction: 30°NNE
Pressure: 29.95"   Gusts: NA
Location:  36.48°N, 77.65°W
Report Text: KIXA 260735Z AUTO 03009KT 5SM RA OVC004 09/09 A2995 RMK AO2
Loading
Personal Weather Stations






























Interactive Weather Map New forecast layout! Learn more

10-Day Weather Forecast

Advertisements
Track Severe Weather on mobile